Time;durP1;ratioP1;P1;durP2;ratioP2;P2;SDS_P1;SDS_P2;PMS_P1;PMS_P2;Temp;Humidity;BMP_temperature;BMP_pressure;BME280_temperature;BME280_humidity;BME280_pressure;Samples;Min_cycle;Max_cycle;Signal;HPM_P1;HPM_P2
2023/02/17 00:01:20;;;;;;;10.43;7.47;;;;;16.20;101723.00;;;;5052730;28;20819;-76
2023/02/17 00:03:48;;;;;;;10.13;8.30;;;;;16.30;101716.00;;;;5060771;28;20234;-76
2023/02/17 00:06:19;;;;;;;11.73;8.85;;;;;16.30;101712.00;;;;5054756;28;20215;-76
2023/02/17 00:08:46;;;;;;;10.23;8.40;;;;;16.30;101712.00;;;;5070108;28;20198;-76
2023/02/17 00:11:14;;;;;;;10.75;8.48;;;;;16.30;101711.00;;;;5058521;28;20231;-76
2023/02/17 00:13:42;;;;;;;12.07;8.98;;;;;16.30;101699.00;;;;5056164;28;20195;-76
2023/02/17 00:16:11;;;;;;;9.32;8.00;;;;;16.30;101708.00;;;;5059259;28;20241;-76
2023/02/17 00:18:38;;;;;;;10.18;9.07;;;;;16.30;101701.00;;;;5057326;28;20664;-76
2023/02/17 00:21:12;;;;;;;11.50;8.60;;;;;16.30;101707.00;;;;5057202;28;20199;-76
2023/02/17 00:23:41;;;;;;;11.05;8.48;;;;;16.30;101698.00;;;;5062819;28;20272;-76
2023/02/17 00:26:09;;;;;;;9.68;7.90;;;;;16.30;101692.00;;;;5062803;28;20542;-76
2023/02/17 00:28:36;;;;;;;10.75;8.68;;;;;16.40;101690.00;;;;5055072;28;20200;-76
2023/02/17 00:31:07;;;;;;;10.18;9.05;;;;;16.30;101691.00;;;;5065770;28;20219;-76
2023/02/17 00:33:35;;;;;;;12.52;9.52;;;;;16.30;101693.00;;;;5053794;28;20230;-76
2023/02/17 00:36:05;;;;;;;11.10;9.07;;;;;16.30;101705.00;;;;5063078;28;20199;-75
2023/02/17 00:38:32;;;;;;;11.95;9.10;;;;;16.30;101689.00;;;;5056147;28;20277;-76
2023/02/17 00:41:01;;;;;;;11.50;9.10;;;;;16.30;101700.00;;;;5056654;28;20656;-76
2023/02/17 00:43:28;;;;;;;13.98;10.35;;;;;16.30;101701.00;;;;5065591;28;20538;-76
2023/02/17 00:45:56;;;;;;;10.73;8.95;;;;;16.30;101700.00;;;;5060344;28;20203;-76
2023/02/17 00:48:23;;;;;;;10.27;8.57;;;;;16.30;101702.00;;;;5066404;28;20234;-76
2023/02/17 00:50:51;;;;;;;11.65;8.75;;;;;16.30;101699.00;;;;5061046;28;20219;-75
2023/02/17 00:53:18;;;;;;;14.20;9.45;;;;;16.30;101702.00;;;;5064501;28;20211;-76
2023/02/17 00:55:45;;;;;;;10.45;9.00;;;;;16.30;101694.00;;;;5055176;28;20202;-76
2023/02/17 00:58:14;;;;;;;11.27;9.38;;;;;16.30;101705.00;;;;5063211;28;20692;-76
2023/02/17 01:00:41;;;;;;;11.45;9.63;;;;;16.30;101697.00;;;;5061303;28;20580;-75
2023/02/17 01:03:09;;;;;;;12.25;8.75;;;;;16.30;101696.00;;;;5061463;28;20195;-76
2023/02/17 01:05:41;;;;;;;10.70;8.07;;;;;16.20;101688.00;;;;5063881;28;20804;-76
2023/02/17 01:08:08;;;;;;;10.38;7.85;;;;;16.30;101689.00;;;;5055569;28;20199;-76
2023/02/17 01:10:37;;;;;;;11.38;8.80;;;;;16.20;101690.00;;;;5065358;28;20233;-76
2023/02/17 01:13:05;;;;;;;12.00;8.85;;;;;16.20;101688.00;;;;5065185;28;20604;-76
2023/02/17 01:15:37;;;;;;;10.32;7.85;;;;;16.20;101683.00;;;;5062833;28;20658;-76
2023/02/17 01:18:05;;;;;;;11.63;8.50;;;;;16.20;101679.00;;;;5053029;28;20250;-75
2023/02/17 01:20:35;;;;;;;16.52;8.38;;;;;16.20;101691.00;;;;5065007;28;20203;-76
2023/02/17 01:23:03;;;;;;;10.18;7.10;;;;;16.20;101689.00;;;;5051288;28;20200;-76
2023/02/17 01:25:30;;;;;;;10.52;7.72;;;;;16.10;101689.00;;;;5051607;28;20215;-76
2023/02/17 01:27:58;;;;;;;10.80;7.45;;;;;16.10;101682.00;;;;5049046;28;20199;-75
2023/02/17 01:30:25;;;;;;;8.85;6.97;;;;;16.10;101687.00;;;;5060967;28;20209;-76
2023/02/17 01:32:54;;;;;;;11.10;7.50;;;;;16.10;101699.00;;;;5066315;28;20202;-75
2023/02/17 01:35:21;;;;;;;11.90;7.82;;;;;16.10;101687.00;;;;5051636;28;20576;-76
2023/02/17 01:37:48;;;;;;;12.13;7.47;;;;;16.00;101680.00;;;;5064859;28;20238;-76
2023/02/17 01:40:19;;;;;;;13.73;8.05;;;;;16.00;101684.00;;;;5057114;28;20192;-76
2023/02/17 01:42:47;;;;;;;12.18;7.80;;;;;16.00;101693.00;;;;5059530;28;20731;-76
2023/02/17 01:45:35;;;;;;;12.02;8.35;;;;;15.90;101688.00;;;;5065914;28;20544;-76
2023/02/17 01:48:09;;;;;;;10.38;7.55;;;;;16.00;101687.00;;;;5062976;28;20231;-76
2023/02/17 01:50:40;;;;;;;10.75;6.93;;;;;16.00;101698.00;;;;5049225;28;20219;-76
2023/02/17 01:53:09;;;;;;;11.13;7.57;;;;;16.00;101683.00;;;;5059416;28;20200;-76
2023/02/17 01:55:39;;;;;;;14.93;7.20;;;;;15.90;101690.00;;;;5048432;28;20203;-76
2023/02/17 01:58:11;;;;;;;10.32;7.22;;;;;15.90;101687.00;;;;5063197;28;20196;-76
2023/02/17 02:00:38;;;;;;;9.13;6.15;;;;;15.90;101687.00;;;;5052828;28;20207;-76
2023/02/17 02:03:11;;;;;;;12.77;7.15;;;;;15.90;101686.00;;;;5062209;28;20199;-76
2023/02/17 02:05:41;;;;;;;11.88;7.90;;;;;15.90;101688.00;;;;5053490;28;20610;-76
2023/02/17 02:08:08;;;;;;;10.88;7.05;;;;;15.90;101695.00;;;;5061296;28;20195;-76
2023/02/17 02:10:36;;;;;;;11.00;7.53;;;;;15.90;101673.00;;;;5067132;28;20558;-76
2023/02/17 02:13:04;;;;;;;13.55;7.60;;;;;15.90;101667.00;;;;5068551;28;20285;-76
2023/02/17 02:15:37;;;;;;;12.32;7.78;;;;;15.80;101645.00;;;;5052111;28;20206;-75
2023/02/17 02:18:21;;;;;;;13.15;7.18;;;;;15.70;101649.00;;;;5057966;28;20567;-76
2023/02/17 02:21:27;;;;;;;11.73;6.93;;;;;15.70;101659.00;;;;5049925;28;20526;-75
2023/02/17 02:24:05;;;;;;;12.73;5.97;;;;;15.80;101647.00;;;;4993903;28;20277;-76
2023/02/17 02:27:18;;;;;;;14.07;6.35;;;;;15.70;101635.00;;;;5052337;28;20210;-76
2023/02/17 02:30:12;;;;;;;8.85;5.82;;;;;15.70;101623.00;;;;5050004;28;20211;-76
2023/02/17 02:32:49;;;;;;;11.35;7.03;;;;;15.70;101619.00;;;;5048349;28;20239;-76
2023/02/17 02:35:22;;;;;;;11.73;6.78;;;;;15.70;101616.00;;;;5049983;28;20195;-76
2023/02/17 02:37:54;;;;;;;8.65;6.10;;;;;15.70;101630.00;;;;5048066;28;20203;-76
2023/02/17 02:40:27;;;;;;;13.00;6.45;;;;;15.70;101630.00;;;;5054514;28;20203;-76
2023/02/17 02:42:55;;;;;;;9.77;6.47;;;;;15.70;101614.00;;;;5058822;28;20632;-76
2023/02/17 02:45:23;;;;;;;10.02;6.60;;;;;15.70;101604.00;;;;5056459;28;20203;-76
2023/02/17 02:47:53;;;;;;;12.25;7.78;;;;;15.70;101622.00;;;;5060098;28;20222;-76
2023/02/17 02:50:27;;;;;;;11.13;7.18;;;;;15.70;101616.00;;;;5048642;28;20278;-76
2023/02/17 02:53:08;;;;;;;10.05;6.75;;;;;15.70;101613.00;;;;5048132;28;20223;-76
2023/02/17 02:55:48;;;;;;;10.25;7.43;;;;;15.70;101602.00;;;;5056674;28;20748;-76
2023/02/17 02:58:20;;;;;;;13.50;8.07;;;;;15.70;101604.00;;;;5053094;28;20700;-76
2023/02/17 03:00:54;;;;;;;11.50;8.02;;;;;15.70;101602.00;;;;5055031;28;20199;-76
2023/02/17 03:03:30;;;;;;;15.40;9.15;;;;;15.70;101600.00;;;;5059763;28;20552;-76
2023/02/17 03:06:02;;;;;;;13.65;8.35;;;;;15.80;101601.00;;;;5067418;28;20225;-75
2023/02/17 03:08:35;;;;;;;11.43;8.25;;;;;15.70;101596.00;;;;5050218;28;20214;-75
2023/02/17 03:11:02;;;;;;;13.02;8.90;;;;;15.80;101597.00;;;;5059224;28;20218;-76
2023/02/17 03:13:32;;;;;;;13.60;9.20;;;;;15.80;101602.00;;;;5066352;28;20202;-76
2023/02/17 03:15:59;;;;;;;11.70;8.18;;;;;15.80;101594.00;;;;5062583;28;20204;-76
2023/02/17 03:18:28;;;;;;;12.10;8.38;;;;;15.80;101599.00;;;;5051839;28;20192;-76
2023/02/17 03:21:01;;;;;;;13.07;8.68;;;;;15.80;101605.00;;;;5060446;28;20199;-76
2023/02/17 03:23:28;;;;;;;12.27;8.02;;;;;15.90;101598.00;;;;5057299;28;20668;-76
2023/02/17 03:25:57;;;;;;;15.52;9.98;;;;;15.90;101587.00;;;;5050855;28;20199;-76
2023/02/17 03:28:25;;;;;;;12.90;8.38;;;;;15.90;101595.00;;;;5055139;28;20203;-76
2023/02/17 03:30:52;;;;;;;13.60;8.23;;;;;15.90;101579.00;;;;5055377;28;20202;-76
2023/02/17 03:33:19;;;;;;;15.40;9.07;;;;;15.90;101574.00;;;;5051378;28;20203;-76
2023/02/17 03:35:48;;;;;;;13.48;9.07;;;;;15.90;101566.00;;;;5052125;28;20558;-76
2023/02/17 03:38:15;;;;;;;12.05;8.52;;;;;15.90;101557.00;;;;5058673;28;20692;-76
2023/02/17 03:40:42;;;;;;;10.48;8.18;;;;;15.90;101567.00;;;;5057545;28;20206;-76
2023/02/17 03:43:10;;;;;;;13.05;8.73;;;;;15.90;101555.00;;;;5055499;28;20209;-76
2023/02/17 03:45:37;;;;;;;11.38;8.10;;;;;15.90;101555.00;;;;5053945;28;20195;-77
2023/02/17 03:48:05;;;;;;;11.98;8.57;;;;;15.90;101548.00;;;;5050711;28;20224;-76
2023/02/17 03:50:32;;;;;;;13.52;8.88;;;;;15.90;101544.00;;;;5049145;28;20211;-76
2023/02/17 03:53:01;;;;;;;12.40;8.38;;;;;15.90;101555.00;;;;5062913;28;20245;-76
2023/02/17 03:55:28;;;;;;;13.45;9.05;;;;;15.90;101559.00;;;;5065318;28;20198;-76
2023/02/17 03:57:55;;;;;;;12.85;9.10;;;;;15.90;101551.00;;;;5063597;28;20214;-76
2023/02/17 04:00:23;;;;;;;13.50;9.27;;;;;15.90;101558.00;;;;5065224;28;20207;-76
2023/02/17 04:02:50;;;;;;;14.27;9.02;;;;;15.90;101558.00;;;;5064405;28;20214;-76
2023/02/17 04:05:18;;;;;;;12.55;8.98;;;;;15.90;101558.00;;;;5069637;28;20219;-76
2023/02/17 04:07:45;;;;;;;14.23;9.20;;;;;15.90;101553.00;;;;5069860;28;20203;-76
2023/02/17 04:10:14;;;;;;;13.40;8.68;;;;;15.90;101558.00;;;;5063972;28;20199;-76
2023/02/17 04:12:41;;;;;;;14.20;9.25;;;;;15.90;101558.00;;;;5050417;28;20227;-76
2023/02/17 04:15:09;;;;;;;12.45;7.88;;;;;15.90;101561.00;;;;5050419;28;20204;-76
2023/02/17 04:17:37;;;;;;;12.38;8.00;;;;;16.00;101572.00;;;;5050388;28;20574;-76
2023/02/17 04:20:05;;;;;;;12.13;8.05;;;;;16.00;101575.00;;;;5050111;28;20215;-76
2023/02/17 04:22:33;;;;;;;10.30;7.55;;;;;16.00;101565.00;;;;5050582;28;20203;-76
2023/02/17 04:25:00;;;;;;;14.07;8.63;;;;;16.00;101564.00;;;;5051486;28;20191;-76
2023/02/17 04:27:28;;;;;;;10.32;7.28;;;;;15.90;101576.00;;;;5058942;28;20207;-76
2023/02/17 04:29:56;;;;;;;8.07;6.68;;;;;15.90;101576.00;;;;5050214;28;20207;-76
2023/02/17 04:32:23;;;;;;;11.63;7.93;;;;;15.90;101572.00;;;;5057886;28;20992;-76
2023/02/17 04:34:50;;;;;;;9.77;6.88;;;;;16.00;101575.00;;;;5070103;28;20199;-76
2023/02/17 04:37:17;;;;;;;11.95;7.82;;;;;16.00;101577.00;;;;5070137;28;20198;-76
2023/02/17 04:39:45;;;;;;;11.27;7.70;;;;;16.00;101567.00;;;;5069534;28;20210;-76
2023/02/17 04:42:12;;;;;;;11.00;6.85;;;;;16.00;101551.00;;;;5067080;28;20203;-76
2023/02/17 04:44:40;;;;;;;11.02;7.00;;;;;15.90;101546.00;;;;5049772;28;20199;-76
2023/02/17 04:47:08;;;;;;;11.40;7.72;;;;;16.00;101540.00;;;;5058850;28;20226;-76
2023/02/17 04:49:35;;;;;;;9.68;6.40;;;;;16.00;101550.00;;;;5048969;28;20199;-76
2023/02/17 04:52:03;;;;;;;12.50;7.82;;;;;16.00;101561.00;;;;5058960;28;20229;-76
2023/02/17 04:54:30;;;;;;;11.65;8.02;;;;;16.00;101561.00;;;;5052686;28;20285;-76
2023/02/17 04:56:57;;;;;;;11.35;7.35;;;;;16.00;101548.00;;;;5058034;28;20187;-76
2023/02/17 04:59:25;;;;;;;10.70;7.40;;;;;16.00;101542.00;;;;5058475;28;20200;-76
2023/02/17 05:01:53;;;;;;;9.10;6.63;;;;;16.00;101537.00;;;;5049786;28;20395;-76
2023/02/17 05:04:20;;;;;;;11.80;7.03;;;;;16.00;101537.00;;;;5056941;28;20203;-76
2023/02/17 05:06:48;;;;;;;10.88;8.02;;;;;16.00;101551.00;;;;5066985;28;20211;-76
2023/02/17 05:09:15;;;;;;;13.52;8.75;;;;;16.00;101546.00;;;;5069406;28;20210;-76
2023/02/17 05:11:42;;;;;;;13.05;8.80;;;;;16.00;101551.00;;;;5057289;28;20232;-76
2023/02/17 05:14:09;;;;;;;12.70;8.10;;;;;16.00;101572.00;;;;5068144;28;20203;-76
2023/02/17 05:16:37;;;;;;;16.58;8.57;;;;;16.00;101559.00;;;;5055865;28;20200;-76
2023/02/17 05:19:05;;;;;;;13.88;8.73;;;;;15.90;101560.00;;;;5048675;28;20192;-77
2023/02/17 05:21:33;;;;;;;12.25;8.20;;;;;15.90;101572.00;;;;5068056;28;20203;-76
2023/02/17 05:24:00;;;;;;;11.93;7.82;;;;;15.90;101568.00;;;;5049182;28;20230;-76
2023/02/17 05:26:27;;;;;;;12.82;8.65;;;;;15.90;101572.00;;;;5050660;28;20235;-76
2023/02/17 05:28:55;;;;;;;14.90;9.65;;;;;15.90;101566.00;;;;5049152;28;20208;-75
2023/02/17 05:31:22;;;;;;;12.15;8.43;;;;;15.90;101556.00;;;;5049157;28;20196;-76
2023/02/17 05:33:49;;;;;;;12.88;9.20;;;;;15.90;101539.00;;;;5054469;28;20203;-75
2023/02/17 05:36:18;;;;;;;13.40;8.75;;;;;15.90;101552.00;;;;5067890;28;20206;-76
2023/02/17 05:38:48;;;;;;;13.23;9.35;;;;;15.90;101567.00;;;;5062384;28;20187;-76
2023/02/17 05:41:15;;;;;;;13.10;8.73;;;;;15.90;101562.00;;;;5057747;28;20211;-76
2023/02/17 05:43:42;;;;;;;11.75;8.15;;;;;15.90;101568.00;;;;5060815;28;20195;-76
2023/02/17 05:46:09;;;;;;;12.52;8.32;;;;;15.90;101561.00;;;;5056644;28;20202;-76
2023/02/17 05:48:37;;;;;;;13.75;8.68;;;;;15.90;101545.00;;;;5049682;28;20191;-75
2023/02/17 05:51:05;;;;;;;15.10;8.32;;;;;15.90;101544.00;;;;5050133;28;20211;-75
2023/02/17 05:53:34;;;;;;;11.18;7.88;;;;;15.90;101562.00;;;;5059936;28;20229;-75
2023/02/17 05:56:01;;;;;;;12.25;7.57;;;;;15.90;101556.00;;;;5065447;28;20206;-75
2023/02/17 05:58:29;;;;;;;11.20;7.28;;;;;15.90;101553.00;;;;5062962;28;20658;-75
2023/02/17 06:00:56;;;;;;;11.88;7.63;;;;;15.90;101534.00;;;;5067023;28;20199;-75
2023/02/17 06:03:23;;;;;;;10.98;7.47;;;;;15.90;101539.00;;;;5054937;28;20609;-75
2023/02/17 06:05:50;;;;;;;13.57;9.13;;;;;15.90;101540.00;;;;5057608;28;20704;-75
2023/02/17 06:08:18;;;;;;;12.85;7.50;;;;;15.90;101543.00;;;;5050902;28;20210;-75
2023/02/17 06:10:46;;;;;;;12.50;6.63;;;;;15.90;101536.00;;;;5052982;28;20203;-75
2023/02/17 06:13:13;;;;;;;13.20;8.30;;;;;15.90;101549.00;;;;5055394;28;20230;-77
2023/02/17 06:15:41;;;;;;;15.63;9.57;;;;;15.90;101546.00;;;;5054305;28;20463;-77
2023/02/17 06:18:08;;;;;;;14.25;8.57;;;;;16.00;101543.00;;;;5056412;28;20203;-76
2023/02/17 06:20:36;;;;;;;12.75;7.60;;;;;16.00;101535.00;;;;5061327;28;20663;-76
2023/02/17 06:23:03;;;;;;;12.68;7.47;;;;;16.00;101548.00;;;;5063670;28;20787;-75
2023/02/17 06:25:31;;;;;;;10.68;7.07;;;;;16.00;101546.00;;;;5065015;28;20214;-76
2023/02/17 06:27:59;;;;;;;8.82;6.45;;;;;16.00;101532.00;;;;5063195;28;20225;-76
2023/02/17 06:30:26;;;;;;;9.88;6.57;;;;;16.00;101531.00;;;;5062623;28;20205;-76
2023/02/17 06:32:54;;;;;;;11.90;6.65;;;;;16.00;101524.00;;;;5059012;28;20583;-76
2023/02/17 06:35:21;;;;;;;10.27;6.70;;;;;16.00;101529.00;;;;5068074;28;20581;-75
2023/02/17 06:37:48;;;;;;;9.90;6.05;;;;;16.00;101535.00;;;;5054005;28;20196;-76
2023/02/17 06:40:16;;;;;;;9.45;6.22;;;;;15.90;101538.00;;;;5049999;28;20938;-75
2023/02/17 06:42:43;;;;;;;11.30;5.97;;;;;16.00;101521.00;;;;5049058;28;20574;-75
2023/02/17 06:45:12;;;;;;;8.85;6.10;;;;;16.00;101515.00;;;;5054702;28;20669;-75
2023/02/17 06:47:40;;;;;;;11.15;6.05;;;;;15.90;101507.00;;;;5053485;28;20600;-75
2023/02/17 06:50:08;;;;;;;10.43;6.65;;;;;16.00;101510.00;;;;5061386;28;20198;-75
2023/02/17 06:52:36;;;;;;;10.18;6.30;;;;;16.00;101519.00;;;;5061618;28;20224;-74
2023/02/17 06:55:04;;;;;;;9.00;5.55;;;;;16.00;101519.00;;;;5049036;28;20203;-74
2023/02/17 06:57:31;;;;;;;7.88;5.43;;;;;16.00;101517.00;;;;5053090;28;20210;-76
2023/02/17 06:59:59;;;;;;;9.98;7.05;;;;;16.00;101511.00;;;;5050394;28;20203;-75
2023/02/17 07:02:27;;;;;;;11.90;6.40;;;;;16.00;101518.00;;;;5055231;28;20191;-75
2023/02/17 07:04:55;;;;;;;8.82;5.65;;;;;16.10;101513.00;;;;5060119;28;20218;-75
2023/02/17 07:07:22;;;;;;;11.40;6.47;;;;;16.10;101521.00;;;;5048761;28;20578;-75
2023/02/17 07:09:49;;;;;;;9.50;6.82;;;;;16.10;101515.00;;;;5047035;28;20669;-75
2023/02/17 07:12:17;;;;;;;8.85;6.53;;;;;16.10;101504.00;;;;5050446;28;20219;-76
2023/02/17 07:14:44;;;;;;;8.25;5.45;;;;;16.10;101516.00;;;;5066576;28;20199;-77
2023/02/17 07:17:11;;;;;;;9.40;6.38;;;;;16.10;101507.00;;;;5047246;28;20215;-75
2023/02/17 07:19:40;;;;;;;8.30;5.97;;;;;16.10;101505.00;;;;5047762;28;20200;-75
2023/02/17 07:22:07;;;;;;;9.40;5.63;;;;;16.10;101508.00;;;;5060666;28;20195;-74
2023/02/17 07:24:34;;;;;;;7.82;5.70;;;;;16.10;101513.00;;;;5067078;28;20203;-74
2023/02/17 07:27:02;;;;;;;7.63;5.20;;;;;16.10;101531.00;;;;5066969;28;20202;-75
2023/02/17 07:29:29;;;;;;;10.65;6.13;;;;;16.10;101533.00;;;;5069478;28;20210;-74
2023/02/17 07:31:56;;;;;;;8.52;5.05;;;;;16.10;101536.00;;;;5066767;28;20212;-74
2023/02/17 07:34:23;;;;;;;9.20;5.88;;;;;16.20;101536.00;;;;5051285;28;20238;-74
2023/02/17 07:36:52;;;;;;;8.10;5.07;;;;;16.20;101529.00;;;;5065012;28;20211;-74
2023/02/17 07:39:19;;;;;;;8.10;5.07;;;;;16.20;101545.00;;;;5070272;28;20206;-74
2023/02/17 07:41:47;;;;;;;7.35;4.95;;;;;16.20;101526.00;;;;5070743;28;20198;-74
2023/02/17 07:44:14;;;;;;;7.45;5.47;;;;;16.20;101511.00;;;;5070955;28;20214;-75
2023/02/17 07:46:41;;;;;;;8.30;5.60;;;;;16.20;101505.00;;;;5069652;28;20219;-74
2023/02/17 07:49:10;;;;;;;6.70;5.30;;;;;16.20;101499.00;;;;5068862;28;20260;-75
2023/02/17 07:51:37;;;;;;;9.48;6.07;;;;;16.30;101512.00;;;;5050386;28;20218;-74
2023/02/17 07:54:06;;;;;;;8.38;5.70;;;;;16.30;101507.00;;;;5051071;28;20250;-74
2023/02/17 07:56:33;;;;;;;6.68;4.93;;;;;16.30;101508.00;;;;5050913;28;20211;-74
2023/02/17 07:59:00;;;;;;;10.00;6.13;;;;;16.30;101519.00;;;;5050851;28;20644;-74
2023/02/17 08:01:28;;;;;;;8.23;5.47;;;;;16.30;101519.00;;;;5050607;28;20196;-74
2023/02/17 08:03:56;;;;;;;8.00;5.53;;;;;16.30;101515.00;;;;5052467;28;20217;-74
2023/02/17 08:06:26;;;;;;;7.25;5.90;;;;;16.40;101522.00;;;;5064197;28;20223;-74
2023/02/17 08:14:32;;;;;;;6.20;4.60;;;;;16.40;101527.00;;;;5049918;28;20762;-74
2023/02/17 08:16:59;;;;;;;8.45;5.30;;;;;16.40;101527.00;;;;5050287;28;20199;-74
2023/02/17 08:19:27;;;;;;;7.35;5.28;;;;;16.40;101537.00;;;;5049814;28;20204;-75
2023/02/17 08:21:55;;;;;;;9.02;5.53;;;;;16.50;101543.00;;;;5050218;28;20196;-75
2023/02/17 08:24:23;;;;;;;7.03;5.15;;;;;16.50;101548.00;;;;5049806;28;20200;-74
2023/02/17 08:26:52;;;;;;;6.78;5.32;;;;;16.50;101543.00;;;;5049692;28;20215;-74
2023/02/17 08:29:20;;;;;;;7.38;5.38;;;;;16.50;101548.00;;;;5069290;28;20677;-74
2023/02/17 08:31:50;;;;;;;6.15;4.50;;;;;16.50;101560.00;;;;5066412;28;20200;-74
2023/02/17 08:34:18;;;;;;;8.30;5.10;;;;;16.60;101562.00;;;;5054584;28;20226;-74
2023/02/17 08:36:45;;;;;;;10.18;4.47;;;;;16.60;101564.00;;;;5069998;28;20249;-74
2023/02/17 08:39:16;;;;;;;7.35;5.03;;;;;16.60;101563.00;;;;5068871;28;20222;-75
2023/02/17 08:41:45;;;;;;;8.18;5.60;;;;;16.60;101562.00;;;;5069831;28;20215;-75
2023/02/17 08:44:16;;;;;;;6.68;4.70;;;;;16.60;101556.00;;;;5068365;28;20211;-75
2023/02/17 08:46:46;;;;;;;6.35;4.85;;;;;16.60;101553.00;;;;5069320;28;20215;-75
2023/02/17 08:49:14;;;;;;;6.05;4.57;;;;;16.70;101572.00;;;;5068077;28;20218;-74
2023/02/17 08:51:41;;;;;;;5.18;4.20;;;;;16.70;101568.00;;;;5069882;28;20207;-75
2023/02/17 08:54:10;;;;;;;6.70;4.78;;;;;16.70;101576.00;;;;5070340;28;20218;-75
2023/02/17 08:56:38;;;;;;;5.80;4.47;;;;;16.70;101567.00;;;;5060795;28;20200;-75
2023/02/17 08:59:06;;;;;;;5.50;4.18;;;;;16.70;101569.00;;;;5050309;28;20208;-75
2023/02/17 09:01:35;;;;;;;6.18;4.32;;;;;16.70;101566.00;;;;5054837;28;20222;-75
2023/02/17 09:04:04;;;;;;;5.55;4.28;;;;;16.80;101576.00;;;;5070011;28;20194;-75
2023/02/17 09:06:35;;;;;;;5.38;3.80;;;;;16.80;101580.00;;;;5069913;28;20215;-75
2023/02/17 09:09:02;;;;;;;6.50;4.57;;;;;16.80;101574.00;;;;5049842;28;20669;-75
2023/02/17 09:11:30;;;;;;;6.43;4.78;;;;;16.90;101572.00;;;;5049668;28;20662;-75
2023/02/17 09:13:57;;;;;;;6.28;4.45;;;;;16.90;101580.00;;;;5049308;28;20540;-74
2023/02/17 09:16:25;;;;;;;4.78;3.72;;;;;16.90;101587.00;;;;5049686;28;20206;-75
2023/02/17 09:18:54;;;;;;;4.95;3.88;;;;;16.90;101584.00;;;;5057228;28;20652;-75
2023/02/17 09:21:22;;;;;;;5.10;3.85;;;;;17.00;101593.00;;;;5069135;28;20198;-75
2023/02/17 09:23:49;;;;;;;4.72;3.70;;;;;17.00;101594.00;;;;5069162;28;20657;-74
2023/02/17 09:26:18;;;;;;;4.95;3.65;;;;;17.00;101606.00;;;;5068963;28;20570;-75
2023/02/17 09:28:46;;;;;;;4.50;3.45;;;;;17.00;101584.00;;;;5069147;28;20470;-74
2023/02/17 09:31:16;;;;;;;5.55;3.88;;;;;17.10;101591.00;;;;5069381;28;20195;-74
2023/02/17 09:33:43;;;;;;;8.82;4.30;;;;;17.10;101587.00;;;;5063653;28;20693;-74
2023/02/17 09:36:14;;;;;;;5.15;3.50;;;;;17.10;101578.00;;;;5049081;28;20681;-74
2023/02/17 09:38:42;;;;;;;5.47;3.97;;;;;17.10;101573.00;;;;5048789;28;20196;-75
2023/02/17 09:41:16;;;;;;;5.03;3.75;;;;;17.10;101572.00;;;;5049512;28;20547;-75
2023/02/17 09:43:44;;;;;;;7.07;3.60;;;;;17.10;101592.00;;;;5059381;28;20276;-75
2023/02/17 09:46:18;;;;;;;5.07;3.55;;;;;17.10;101575.00;;;;5066582;28;20207;-76
2023/02/17 09:48:49;;;;;;;6.13;3.70;;;;;17.10;101577.00;;;;5068681;28;20199;-75
2023/02/17 09:51:26;;;;;;;5.13;4.15;;;;;17.10;101578.00;;;;5068367;28;20198;-75
2023/02/17 09:54:02;;;;;;;4.78;3.47;;;;;17.10;101577.00;;;;5069149;28;20222;-75
2023/02/17 09:56:34;;;;;;;4.18;3.30;;;;;17.10;101576.00;;;;5057295;28;20574;-74
2023/02/17 09:59:06;;;;;;;4.88;2.92;;;;;17.20;101561.00;;;;5048426;28;20206;-74
2023/02/17 10:01:35;;;;;;;4.50;3.28;;;;;17.20;101579.00;;;;5049136;28;20640;-75
2023/02/17 10:04:08;;;;;;;5.53;3.65;;;;;17.20;101574.00;;;;5049665;28;20202;-74
2023/02/17 10:06:39;;;;;;;6.00;3.28;;;;;17.20;101575.00;;;;5049600;28;20228;-75
2023/02/17 10:09:14;;;;;;;4.90;3.28;;;;;17.20;101581.00;;;;5067961;28;20639;-74
2023/02/17 10:11:47;;;;;;;4.45;3.47;;;;;17.20;101577.00;;;;5068570;28;20194;-74
2023/02/17 10:14:19;;;;;;;5.35;3.38;;;;;17.30;101594.00;;;;5068980;28;20227;-75
2023/02/17 10:16:51;;;;;;;4.70;3.22;;;;;17.30;101603.00;;;;5068205;28;20206;-74
2023/02/17 10:19:25;;;;;;;4.75;3.40;;;;;17.30;101576.00;;;;5067754;28;20206;-75
2023/02/17 10:22:02;;;;;;;5.95;3.67;;;;;17.30;101591.00;;;;5067543;28;20199;-74
2023/02/17 10:24:29;;;;;;;4.80;3.33;;;;;17.30;101607.00;;;;5068154;28;20205;-74
2023/02/17 10:27:21;;;;;;;4.47;3.40;;;;;17.20;101604.00;;;;5066787;28;20217;-74
2023/02/17 10:30:01;;;;;;;6.90;3.95;;;;;17.30;101619.00;;;;5067427;28;20209;-75
2023/02/17 10:32:29;;;;;;;3.25;2.47;;;;;17.30;101608.00;;;;5067740;28;20238;-75
2023/02/17 10:35:13;;;;;;;5.50;3.47;;;;;17.20;101608.00;;;;5063653;28;20238;-76
2023/02/17 10:37:47;;;;;;;5.10;3.13;;;;;17.30;101629.00;;;;5047684;28;20214;-75
2023/02/17 10:40:19;;;;;;;5.07;3.05;;;;;17.30;101623.00;;;;5048233;28;20565;-75
2023/02/17 10:42:47;;;;;;;11.30;4.30;;;;;17.30;101638.00;;;;5047349;28;20273;-75
2023/02/17 10:45:24;;;;;;;4.65;3.90;;;;;17.30;101601.00;;;;5048155;28;20646;-75
2023/02/17 10:47:56;;;;;;;4.28;2.97;;;;;17.30;101602.00;;;;5047517;28;20227;-75
2023/02/17 10:50:24;;;;;;;7.22;3.53;;;;;17.30;101592.00;;;;5047757;28;20218;-75
2023/02/17 10:52:55;;;;;;;4.70;3.53;;;;;17.30;101605.00;;;;5046973;28;20204;-75
2023/02/17 10:55:29;;;;;;;4.30;3.25;;;;;17.30;101603.00;;;;5058941;28;20218;-75
2023/02/17 10:58:04;;;;;;;6.28;3.67;;;;;17.30;101594.00;;;;5049105;28;20204;-75
2023/02/17 11:00:32;;;;;;;4.05;2.70;;;;;17.30;101607.00;;;;5049303;28;20215;-75
2023/02/17 11:02:59;;;;;;;6.72;3.03;;;;;17.30;101615.00;;;;5049501;28;20203;-75
2023/02/17 11:05:28;;;;;;;5.07;3.30;;;;;17.30;101623.00;;;;5052309;28;20223;-75
2023/02/17 11:08:00;;;;;;;4.53;3.38;;;;;17.30;101597.00;;;;5063645;28;20945;-75
2023/02/17 11:10:31;;;;;;;4.55;3.10;;;;;17.30;101630.00;;;;5063097;28;20203;-75
2023/02/17 11:13:01;;;;;;;4.65;2.92;;;;;17.30;101639.00;;;;5051758;28;20203;-75
2023/02/17 11:15:31;;;;;;;7.63;3.90;;;;;17.30;101637.00;;;;5063471;28;20309;-75
2023/02/17 11:18:08;;;;;;;6.55;4.43;;;;;17.30;101608.00;;;;5070773;28;20203;-75
2023/02/17 11:20:37;;;;;;;7.25;3.55;;;;;17.30;101613.00;;;;5071686;28;20583;-75
2023/02/17 11:23:20;;;;;;;5.38;3.38;;;;;17.30;101628.00;;;;5071579;28;20205;-76
2023/02/17 11:26:00;;;;;;;5.22;3.90;;;;;17.30;101635.00;;;;5071506;28;20550;-76
2023/02/17 11:28:27;;;;;;;4.93;3.40;;;;;17.40;101636.00;;;;5070848;28;20653;-76
2023/02/17 11:30:57;;;;;;;5.50;3.53;;;;;17.40;101635.00;;;;5072201;28;20735;-75
2023/02/17 11:33:32;;;;;;;8.75;4.38;;;;;17.30;101619.00;;;;5071593;28;20199;-75
2023/02/17 11:35:59;;;;;;;7.90;4.10;;;;;17.40;101647.00;;;;5070701;28;20203;-75
2023/02/17 11:38:32;;;;;;;6.47;3.60;;;;;17.30;101650.00;;;;5069261;28;20195;-74
2023/02/17 11:41:01;;;;;;;6.05;4.10;;;;;17.30;101685.00;;;;5052218;28;20199;-75
2023/02/17 11:43:30;;;;;;;6.78;4.07;;;;;17.30;101662.00;;;;5051307;28;20199;-75
2023/02/17 11:46:17;;;;;;;6.30;4.25;;;;;17.20;101679.00;;;;5050456;28;20196;-75
2023/02/17 11:49:00;;;;;;;4.43;3.88;;;;;17.20;101663.00;;;;5050477;28;20191;-75
2023/02/17 11:51:36;;;;;;;5.93;4.13;;;;;17.20;101648.00;;;;5055268;28;20206;-74
2023/02/17 11:54:12;;;;;;;4.25;3.42;;;;;17.20;101669.00;;;;5062454;28;20679;-75
2023/02/17 11:56:43;;;;;;;4.97;3.45;;;;;17.20;101682.00;;;;5051650;28;20207;-75
2023/02/17 11:59:32;;;;;;;5.82;3.00;;;;;17.20;101678.00;;;;5051051;28;20192;-75
2023/02/17 12:02:18;;;;;;;6.63;3.67;;;;;17.20;101677.00;;;;5067020;28;20202;-75
2023/02/17 12:05:15;;;;;;;5.93;3.78;;;;;17.10;101678.00;;;;5070965;28;20286;-75
2023/02/17 12:07:54;;;;;;;4.97;3.55;;;;;17.20;101682.00;;;;5061043;28;20203;-76
2023/02/17 12:10:37;;;;;;;6.53;3.40;;;;;17.10;101675.00;;;;5051680;28;20211;-75
2023/02/17 12:13:19;;;;;;;8.40;3.88;;;;;17.10;101677.00;;;;5050531;28;20226;-75
2023/02/17 12:16:00;;;;;;;5.50;3.13;;;;;17.10;101685.00;;;;5050412;28;20223;-76
2023/02/17 12:18:41;;;;;;;5.13;3.17;;;;;17.00;101679.00;;;;5051133;28;20203;-75
2023/02/17 12:21:14;;;;;;;7.32;2.97;;;;;17.00;101682.00;;;;5051338;28;20199;-76
2023/02/17 12:23:58;;;;;;;5.97;3.25;;;;;17.00;101693.00;;;;5050057;28;20200;-75